Huvudsida
METAR-TAF:

METAR-TAF

Flygplatser :

El Salvador, El Salvador

latitud: 13-26N, longitud: 089-03W, höjd: 25 m

Aktuellt väderrapport

Denna rapport gjordes för 32 minuter sedan, klockan 22:50 UTC
Vind 7 kt från syd/sydväst
Temperatur 31°C
Fuktighet 49%
Tryck 1009 hPa
Sikt 10 km eller mer
Få moln på en höjd av 5300 ft

METAR: MSLP 222250Z 20007KT 9999 FEW053 31/19 Q1009 A2980 NOSIG

Tid: 17:22 (23:22 UTC)

Väderprognos

Denna rapport gjordes för 7 timmar och 57 minuter sedan, klockan 15:25 UTC
Prognos gäller från 22 kl. 18 UTC till 23 kl. 18 UTC
Vind 10 kt från syd/sydväst i byarna ända upp till 20 kt
Sikt 10 km eller mer
Få moln på en höjd av 6000 ft
Från 23 kl. 0100 UTC
Vind 6 kt från nord/nordost
Sikt 10 km eller mer
Få moln på en höjd av 7000 ft
Från 23 kl. 1500 UTC
Vind 10 kt från nord/nordost i byarna ända upp till 20 kt

TAF: MSLP 221525Z 2218/2318 21010G20KT 9999 FEW060 TX37/2218Z TN25/2312Z FM230100 03006KT 9999 FEW070 FM231500 03010G20KT

Aktuella väderrapporter och prognoser från 4000 flygplatser (METAR- och TAF-rapporter).

De tillgängliga stationerna syns som gula och röda prickar på kartan.

För musen över prickarna för att se namnen på stationerna.

Klicka sedan för att få väderrapporter och prognoser.

För att ändra kartan: Klicka på de gröna knapparna med ett svart kors på för att zooma in; den gröna knappen med ett streck på för att zooma ut; eller på de gröna pilarna för angränsande kartor.


METAR-TAF: